Time;durP1;ratioP1;P1;durP2;ratioP2;P2;SDS_P1;SDS_P2;PMS_P1;PMS_P2;Temp;Humidity;BMP_temperature;BMP_pressure;BME280_temperature;BME280_humidity;BME280_pressure;Samples;Min_cycle;Max_cycle;Signal;HPM_P1;HPM_P2
2022/06/29 00:00:55;;;;;;;9.03;8.00;;;;;;;19.92;91.61;95196.38;5012298;28;20458;-80
2022/06/29 00:03:21;;;;;;;10.40;7.80;;;;;;;19.98;91.30;95196.50;5013276;28;20594;-80
2022/06/29 00:05:48;;;;;;;8.20;7.40;;;;;;;20.10;91.57;95196.88;5013451;28;20512;-79
2022/06/29 00:08:17;;;;;;;8.83;8.13;;;;;;;20.22;90.73;95191.94;5013197;28;21157;-81
2022/06/29 00:10:44;;;;;;;8.77;8.03;;;;;;;20.24;90.19;95197.91;5013400;28;20451;-80
2022/06/29 00:13:11;;;;;;;10.53;7.90;;;;;;;20.26;90.17;95196.75;5013487;28;20436;-80
2022/06/29 00:15:38;;;;;;;10.17;8.77;;;;;;;20.29;89.51;95201.72;5013940;28;20794;-80
2022/06/29 00:18:05;;;;;;;7.70;7.13;;;;;;;20.30;89.34;95206.03;4994983;28;20444;-80
2022/06/29 00:20:31;;;;;;;12.97;7.87;;;;;;;20.29;89.05;95201.72;5013797;28;20827;-79
2022/06/29 00:22:58;;;;;;;10.13;7.33;;;;;;;20.31;89.10;95198.84;5012975;28;20456;-80
2022/06/29 00:25:27;;;;;;;7.73;7.03;;;;;;;20.31;88.37;95196.19;5013230;28;20452;-80
2022/06/29 00:27:53;;;;;;;8.50;7.70;;;;;;;20.32;88.83;95201.34;5013382;28;20432;-80
2022/06/29 00:30:20;;;;;;;8.00;7.30;;;;;;;20.35;88.28;95203.63;5013127;28;20449;-80
2022/06/29 00:32:47;;;;;;;9.73;7.13;;;;;;;20.41;88.29;95202.94;4995001;28;20436;-79
2022/06/29 00:35:14;;;;;;;7.90;7.20;;;;;;;20.45;87.74;95199.91;5013152;28;20432;-80
2022/06/29 00:37:41;;;;;;;8.80;7.90;;;;;;;20.50;87.04;95200.16;5012939;28;20436;-79
2022/06/29 00:40:09;;;;;;;7.47;6.77;;;;;;;20.50;87.00;95200.16;5012818;28;20440;-79
2022/06/29 00:42:37;;;;;;;8.23;7.60;;;;;;;20.52;86.51;95198.16;5015471;28;20447;-80
2022/06/29 00:45:05;;;;;;;9.60;7.63;;;;;;;20.53;87.01;95192.66;5015575;28;20486;-80
2022/06/29 00:47:32;;;;;;;8.50;7.13;;;;;;;20.49;87.12;95193.19;5015704;28;20456;-80
2022/06/29 00:49:59;;;;;;;8.57;6.97;;;;;;;20.39;85.74;95188.94;5015608;28;20491;-81
2022/06/29 00:52:27;;;;;;;8.20;7.50;;;;;;;20.32;86.52;95188.00;5015371;28;20538;-80
2022/06/29 00:54:55;;;;;;;7.50;6.90;;;;;;;20.30;87.05;95182.03;5015549;28;20443;-80
2022/06/29 00:57:24;;;;;;;8.03;7.23;;;;;;;20.29;87.32;95188.38;4997014;28;20989;-80
2022/06/29 00:59:54;;;;;;;9.07;7.70;;;;;;;20.29;86.91;95187.56;5015379;28;20451;-79
2022/06/29 01:02:24;;;;;;;8.27;6.83;;;;;;;20.28;87.28;95181.41;5015087;28;20440;-80
2022/06/29 01:04:52;;;;;;;7.47;6.70;;;;;;;20.21;87.09;95177.78;5015739;28;20492;-79
2022/06/29 01:07:24;;;;;;;8.77;7.00;;;;;;;19.96;88.21;95176.38;5015123;28;20448;-80
2022/06/29 01:09:54;;;;;;;7.77;6.93;;;;;;;19.89;88.39;95178.91;5015724;28;20451;-79
2022/06/29 01:12:21;;;;;;;8.60;7.70;;;;;;;19.86;88.52;95175.78;5016289;28;20428;-79
2022/06/29 01:14:49;;;;;;;9.90;7.07;;;;;;;19.74;89.34;95176.22;4997711;28;20530;-79
2022/06/29 01:17:20;;;;;;;9.83;6.67;;;;;;;19.72;89.02;95164.09;5016015;28;20452;-79
2022/06/29 01:19:47;;;;;;;7.47;6.87;;;;;;;19.66;89.09;95160.34;4982244;28;20456;-79
2022/06/29 01:22:16;;;;;;;7.93;7.20;;;;;;;19.66;89.01;95162.13;5015853;28;20463;-79
2022/06/29 01:24:45;;;;;;;8.03;7.40;;;;;;;19.67;89.36;95166.47;5016262;28;20476;-79
2022/06/29 01:27:18;;;;;;;6.50;6.00;;;;;;;19.70;89.16;95171.44;5015320;28;20503;-80
2022/06/29 01:29:45;;;;;;;8.23;7.20;;;;;;;19.73;88.79;95166.59;5015889;28;20444;-80
2022/06/29 01:32:13;;;;;;;13.93;7.80;;;;;;;19.68;88.49;95165.47;5015710;28;20440;-79
2022/06/29 01:34:40;;;;;;;10.43;7.57;;;;;;;19.67;88.98;95172.63;5015616;28;20512;-79
2022/06/29 01:37:08;;;;;;;7.83;7.30;;;;;;;19.59;88.62;95164.69;4981162;28;20436;-80
2022/06/29 01:39:36;;;;;;;7.83;7.13;;;;;;;19.61;88.83;95165.34;5015695;28;20456;-80
2022/06/29 01:42:04;;;;;;;8.13;7.30;;;;;;;19.59;88.26;95170.03;5015748;28;20568;-81
2022/06/29 01:44:30;;;;;;;12.97;6.83;;;;;;;19.62;89.05;95174.97;5015171;28;20472;-80
2022/06/29 01:46:57;;;;;;;10.27;7.97;;;;;;;19.68;88.49;95173.47;5015849;28;20455;-79
2022/06/29 01:49:25;;;;;;;10.83;6.70;;;;;;;19.72;88.60;95175.59;5015540;28;20436;-80
2022/06/29 01:51:52;;;;;;;7.30;6.70;;;;;;;19.74;88.91;95173.56;5015816;28;20445;-79
2022/06/29 01:54:18;;;;;;;8.03;7.17;;;;;;;19.80;88.61;95170.19;5014989;28;20794;-79
2022/06/29 01:56:47;;;;;;;8.73;7.30;;;;;;;19.83;88.99;95166.31;5015606;28;20549;-79
2022/06/29 01:59:14;;;;;;;8.13;7.30;;;;;;;19.85;88.19;95158.16;5015139;28;20459;-79
2022/06/29 02:01:40;;;;;;;13.47;6.83;;;;;;;19.89;87.56;95164.78;5014780;28;20433;-79
2022/06/29 02:04:08;;;;;;;10.33;6.90;;;;;;;19.89;87.42;95165.59;5014762;28;20499;-79
2022/06/29 02:06:34;;;;;;;6.80;6.20;;;;;;;19.85;87.71;95155.50;5014856;28;20439;-79
2022/06/29 02:09:01;;;;;;;7.07;6.47;;;;;;;19.78;87.22;95166.88;5015021;28;20440;-80
2022/06/29 02:11:28;;;;;;;7.93;7.00;;;;;;;19.68;88.35;95150.31;5015469;28;20436;-80
2022/06/29 02:13:56;;;;;;;7.07;6.47;;;;;;;19.67;88.31;95148.69;5015200;28;20416;-78
2022/06/29 02:16:23;;;;;;;7.93;7.23;;;;;;;19.70;87.67;95150.97;5014889;28;20563;-80
2022/06/29 02:18:50;;;;;;;9.10;6.83;;;;;;;19.76;88.04;95149.41;5014838;28;20448;-80
2022/06/29 02:21:17;;;;;;;7.07;6.47;;;;;;;19.80;87.62;95140.06;5014708;28;20455;-80
2022/06/29 02:23:44;;;;;;;7.50;6.90;;;;;;;19.84;87.71;95135.19;5014780;28;20447;-79
2022/06/29 02:26:11;;;;;;;7.80;7.10;;;;;;;19.85;87.55;95134.19;5014807;28;20482;-79
2022/06/29 02:28:38;;;;;;;9.50;6.63;;;;;;;19.84;88.22;95140.53;5014454;28;20812;-79
2022/06/29 02:36:35;;;;;;;17.23;6.80;;;;;;;19.71;87.74;95141.16;5014270;28;20419;-80
2022/06/29 02:39:02;;;;;;;6.67;6.07;;;;;;;19.62;88.40;95134.22;5014945;28;20504;-80
2022/06/29 02:41:29;;;;;;;8.33;6.47;;;;;;;19.48;88.53;95126.00;5014991;28;20761;-80
2022/06/29 02:43:56;;;;;;;7.30;6.60;;;;;;;19.42;88.76;95120.56;5014534;28;20455;-79
2022/06/29 02:46:24;;;;;;;7.50;6.60;;;;;;;19.29;88.41;95120.31;5014352;28;20452;-80
2022/06/29 02:48:51;;;;;;;7.70;6.83;;;;;;;19.31;89.49;95119.13;5014188;28;20439;-79
2022/06/29 02:51:18;;;;;;;6.80;6.33;;;;;;;19.32;89.50;95119.97;5014106;28;20523;-80
2022/06/29 02:53:45;;;;;;;7.17;6.63;;;;;;;19.37;89.71;95106.94;5014740;28;20444;-79
2022/06/29 02:56:12;;;;;;;7.40;6.70;;;;;;;19.43;89.29;95116.91;5014674;28;20448;-80
2022/06/29 02:58:39;;;;;;;7.80;7.20;;;;;;;19.43;88.55;95108.91;5013777;28;20447;-80
2022/06/29 03:01:06;;;;;;;6.87;6.27;;;;;;;19.36;88.04;95115.94;5013905;28;20930;-80
2022/06/29 03:03:34;;;;;;;9.67;6.80;;;;;;;19.29;88.27;95115.00;5013159;28;20583;-80
2022/06/29 03:06:01;;;;;;;7.07;6.47;;;;;;;19.21;88.95;95115.88;5013583;28;20476;-79
2022/06/29 03:08:28;;;;;;;7.47;6.87;;;;;;;19.07;89.16;95111.31;5012810;28;20448;-80
2022/06/29 03:10:55;;;;;;;8.07;7.37;;;;;;;18.80;90.25;95105.53;5012962;28;20459;-79
2022/06/29 03:13:21;;;;;;;8.20;6.50;;;;;;;18.82;91.25;95108.00;4978663;28;20810;-80
2022/06/29 03:15:48;;;;;;;10.57;6.63;;;;;;;18.68;92.02;95106.91;5012827;28;20459;-79
2022/06/29 03:18:15;;;;;;;8.73;7.97;;;;;;;18.61;92.83;95108.56;5012509;28;20447;-78
2022/06/29 03:20:44;;;;;;;10.47;7.87;;;;;;;18.58;93.64;95112.41;5013106;28;20938;-78
2022/06/29 03:23:11;;;;;;;9.60;8.70;;;;;;;18.61;94.44;95118.38;4946404;28;20979;-76
2022/06/29 03:25:38;;;;;;;11.43;9.83;;;;;;;18.66;94.68;95118.72;5012919;28;20487;-79
2022/06/29 03:28:05;;;;;;;11.73;8.80;;;;;;;18.71;95.06;95114.53;5012592;28;20954;-78
2022/06/29 03:30:32;;;;;;;16.13;8.80;;;;;;;18.82;95.81;95115.97;5012436;28;20470;-79
2022/06/29 03:32:59;;;;;;;14.03;9.97;;;;;;;18.90;95.83;95110.59;5012667;28;20444;-79
2022/06/29 03:35:26;;;;;;;11.50;9.93;;;;;;;19.00;95.39;95123.66;5012840;28;20448;-80
2022/06/29 03:37:54;;;;;;;13.30;10.07;;;;;;;18.91;94.30;95117.59;4978440;28;20462;-79
2022/06/29 03:40:21;;;;;;;13.20;10.07;;;;;;;18.98;94.83;95112.38;5012738;28;20454;-80
2022/06/29 03:42:48;;;;;;;11.43;10.20;;;;;;;18.81;94.83;95117.81;5013056;28;20436;-78
2022/06/29 03:45:15;;;;;;;11.13;10.03;;;;;;;18.98;94.79;95118.53;5012260;28;20826;-78
2022/06/29 03:47:42;;;;;;;15.53;10.20;;;;;;;19.24;94.13;95122.69;5010194;28;20962;-77
2022/06/29 03:50:10;;;;;;;17.63;10.80;;;;;;;19.57;93.00;95123.28;5012404;28;20760;-78
2022/06/29 03:52:37;;;;;;;10.60;9.60;;;;;;;19.89;91.24;95127.47;5012338;28;20931;-81
2022/06/29 03:55:07;;;;;;;11.80;8.93;;;;;;;20.28;90.12;95128.09;5012465;28;20444;-81
2022/06/29 03:57:34;;;;;;;10.40;9.40;;;;;;;20.59;87.91;95117.25;5012390;28;20452;-78
2022/06/29 04:00:01;;;;;;;12.80;8.60;;;;;;;20.92;85.98;95124.81;5012222;28;20455;-79
2022/06/29 04:02:27;;;;;;;10.40;8.17;;;;;;;21.44;85.45;95123.75;5012010;28;20949;-82
2022/06/29 04:04:54;;;;;;;8.20;7.40;;;;;;;22.08;82.28;95123.69;5012486;28;20492;-81
2022/06/29 04:07:23;;;;;;;11.37;6.50;;;;;;;22.77;77.53;95124.50;4993691;28;20439;-84
2022/06/29 04:09:49;;;;;;;8.23;6.30;;;;;;;23.31;74.90;95121.00;5012403;28;20966;-82
2022/06/29 04:12:18;;;;;;;6.00;5.50;;;;;;;23.85;72.44;95133.47;5012067;28;20452;-85
2022/06/29 04:14:44;;;;;;;9.07;5.77;;;;;;;24.25;70.57;95128.06;4994525;28;20467;-83
2022/06/29 04:17:11;;;;;;;6.07;5.47;;;;;;;24.55;69.02;95123.06;5016057;28;20467;-83
2022/06/29 04:19:38;;;;;;;10.07;5.83;;;;;;;24.83;68.13;95125.47;5015754;28;20454;-84
2022/06/29 04:22:05;;;;;;;10.20;5.70;;;;;;;25.00;66.40;95134.72;5015842;28;20459;-86
2022/06/29 04:24:32;;;;;;;7.70;5.00;;;;;;;25.03;65.38;95134.31;5015680;28;20483;-79
2022/06/29 04:26:59;;;;;;;4.70;4.30;;;;;;;24.99;65.05;95127.72;5015561;28;20444;-78
2022/06/29 04:29:27;;;;;;;5.40;4.80;;;;;;;24.86;65.44;95116.97;5016828;28;20451;-79
2022/06/29 04:31:54;;;;;;;5.37;4.93;;;;;;;24.70;64.79;95108.38;5016749;28;20424;-79
2022/06/29 04:34:21;;;;;;;5.40;5.07;;;;;;;24.68;65.49;95106.94;5017075;28;20447;-78
2022/06/29 04:36:47;;;;;;;5.43;4.63;;;;;;;24.60;65.79;95101.81;5016795;28;20447;-78
2022/06/29 04:39:14;;;;;;;5.47;5.00;;;;;;;24.56;66.05;95101.41;5016329;28;20451;-77
2022/06/29 04:41:41;;;;;;;8.90;4.83;;;;;;;24.51;67.17;95095.84;5015197;28;20471;-78
2022/06/29 04:44:08;;;;;;;6.60;5.40;;;;;;;24.57;66.46;95091.50;4996707;28;20444;-79
2022/06/29 04:46:36;;;;;;;4.90;4.50;;;;;;;24.57;66.55;95086.94;4996844;28;20477;-78
2022/06/29 04:49:04;;;;;;;5.53;4.90;;;;;;;24.70;66.57;95081.53;4996399;28;20448;-78
2022/06/29 04:51:33;;;;;;;5.47;5.10;;;;;;;24.80;66.05;95089.13;5000418;28;20465;-79
2022/06/29 04:54:01;;;;;;;6.70;5.20;;;;;;;24.93;67.43;95091.78;5008360;28;20923;-80
2022/06/29 04:56:29;;;;;;;7.87;7.17;;;;;;;24.97;69.56;95102.91;5016240;28;20452;-79
2022/06/29 04:58:58;;;;;;;12.03;8.73;;;;;;;24.42;69.56;95113.22;5016547;28;20447;-78
2022/06/29 05:01:26;;;;;;;9.00;8.23;;;;;;;24.28;71.46;95111.56;5016317;28;20433;-79
2022/06/29 05:26:20;;;;;;;12.43;10.60;;;;;;;24.87;68.66;95124.03;5128086;27;20907;-82
2022/06/29 05:28:47;;;;;;;8.87;8.10;;;;;;;25.03;70.09;95123.56;5107714;28;20448;-82
2022/06/29 05:31:14;;;;;;;14.40;8.60;;;;;;;25.25;67.87;95121.41;5102628;28;20432;-82
2022/06/29 05:33:41;;;;;;;8.73;7.50;;;;;;;25.52;67.33;95127.44;5065178;28;20821;-82
2022/06/29 05:36:10;;;;;;;14.60;8.80;;;;;;;25.89;67.71;95123.06;5090156;28;20472;-83
2022/06/29 05:38:38;;;;;;;10.43;9.20;;;;;;;26.22;66.08;95120.09;5089900;28;20954;-84
2022/06/29 05:41:06;;;;;;;14.03;8.83;;;;;;;25.86;65.32;95126.19;5090086;28;20445;-82
2022/06/29 05:43:34;;;;;;;11.67;10.47;;;;;;;25.72;66.83;95121.94;5090120;28;20440;-84
2022/06/29 05:46:01;;;;;;;11.17;10.07;;;;;;;25.77;69.24;95106.81;5089930;28;20436;-82
2022/06/29 05:48:28;;;;;;;10.43;9.43;;;;;;;26.01;66.46;95125.84;5090214;28;20440;-83
2022/06/29 05:50:55;;;;;;;9.37;8.47;;;;;;;26.11;65.09;95126.19;5071116;28;20433;-84
2022/06/29 05:53:22;;;;;;;13.20;8.90;;;;;;;26.24;65.25;95126.88;5089823;28;20449;-84
2022/06/29 05:55:49;;;;;;;10.47;8.60;;;;;;;26.59;65.38;95123.66;5089852;28;20492;-83
2022/06/29 05:58:19;;;;;;;12.00;7.90;;;;;;;26.76;64.72;95130.13;5089615;28;20444;-81
2022/06/29 06:00:47;;;;;;;9.03;7.73;;;;;;;26.97;62.42;95136.94;5089581;28;20430;-83
2022/06/29 06:03:14;;;;;;;15.33;7.10;;;;;;;27.12;62.92;95145.47;5089627;28;20457;-83
2022/06/29 06:05:41;;;;;;;7.90;7.20;;;;;;;27.36;63.01;95142.88;5089769;28;20445;-83
2022/06/29 06:08:08;;;;;;;7.37;6.70;;;;;;;27.48;61.75;95140.25;5089525;28;20538;-84
2022/06/29 06:10:35;;;;;;;10.93;5.90;;;;;;;27.67;60.92;95145.38;5070485;28;20807;-84
2022/06/29 06:13:05;;;;;;;5.97;5.30;;;;;;;27.93;59.56;95152.25;5089460;28;20454;-84
2022/06/29 06:15:32;;;;;;;7.10;5.60;;;;;;;28.01;60.17;95154.59;5089328;28;20593;-83
2022/06/29 06:18:01;;;;;;;7.77;5.70;;;;;;;28.12;59.05;95150.28;5089766;28;20458;-83
2022/06/29 06:20:28;;;;;;;6.57;5.77;;;;;;;28.05;58.32;95152.28;5089389;28;20518;-80
2022/06/29 06:22:55;;;;;;;6.20;5.13;;;;;;;28.15;59.17;95143.59;5089177;28;20443;-84
2022/06/29 06:25:22;;;;;;;5.63;5.13;;;;;;;28.28;58.15;95144.22;5099580;28;20477;-83
2022/06/29 06:27:49;;;;;;;9.97;5.97;;;;;;;28.25;57.59;95133.91;5095715;28;20937;-83
2022/06/29 06:30:16;;;;;;;7.43;6.63;;;;;;;27.76;58.33;95133.22;5077176;28;20447;-83
2022/06/29 06:32:42;;;;;;;10.20;9.20;;;;;;;27.76;59.35;95127.81;5096260;28;20594;-84
2022/06/29 06:35:11;;;;;;;11.30;10.23;;;;;;;27.89;60.61;95125.97;5095612;28;20494;-83
2022/06/29 06:37:38;;;;;;;10.53;9.53;;;;;;;27.95;61.45;95116.94;5095598;28;20933;-83
2022/06/29 06:42:51;;;;;;;18.33;9.80;;;;;;;28.23;59.41;95103.59;5095588;28;20556;-83
2022/06/29 06:45:18;;;;;;;12.40;9.80;;;;;;;28.48;58.87;95110.66;5095659;28;20451;-81
2022/06/29 06:47:44;;;;;;;12.33;10.33;;;;;;;28.75;58.21;95095.59;5076974;28;20518;-84
2022/06/29 06:50:13;;;;;;;10.30;9.40;;;;;;;28.98;57.34;95105.56;5095393;28;20447;-84
2022/06/29 06:52:39;;;;;;;12.00;9.93;;;;;;;29.23;56.74;95105.25;5095207;28;20489;-84
2022/06/29 06:55:07;;;;;;;12.80;10.67;;;;;;;29.42;56.94;95106.69;5095360;28;20837;-84
2022/06/29 06:57:35;;;;;;;17.03;9.47;;;;;;;29.47;55.63;95109.50;5059852;28;20445;-84
2022/06/29 07:00:02;;;;;;;11.17;10.10;;;;;;;29.45;57.02;95106.22;5095363;28;20446;-84
2022/06/29 07:02:29;;;;;;;15.07;10.77;;;;;;;29.50;56.47;95114.47;5095186;28;20451;-84
2022/06/29 07:04:56;;;;;;;20.97;11.07;;;;;;;29.34;57.75;95109.78;5059504;28;20430;-85
2022/06/29 07:07:24;;;;;;;12.13;10.90;;;;;;;29.21;57.26;95105.50;5060899;28;20497;-85
2022/06/29 07:09:51;;;;;;;20.90;12.73;;;;;;;29.02;56.45;95105.91;5095021;28;20947;-84
2022/06/29 07:12:18;;;;;;;13.33;10.20;;;;;;;28.88;58.16;95110.75;5094839;28;20455;-84
2022/06/29 07:14:45;;;;;;;12.27;10.87;;;;;;;28.91;57.66;95099.47;5059223;28;20478;-84
2022/06/29 07:17:12;;;;;;;18.30;11.77;;;;;;;28.95;56.88;95101.47;5094997;28;20454;-83
2022/06/29 07:19:39;;;;;;;12.77;11.47;;;;;;;28.92;58.01;95096.53;5094615;28;20924;-83
2022/06/29 07:22:06;;;;;;;17.33;11.80;;;;;;;28.95;59.26;95095.25;5094591;28;20440;-84
2022/06/29 07:24:34;;;;;;;15.50;12.60;;;;;;;29.13;60.05;95086.13;5094637;28;20972;-84
2022/06/29 07:27:01;;;;;;;13.70;11.70;;;;;;;29.25;57.77;95095.03;5058930;28;20430;-84
2022/06/29 07:29:28;;;;;;;13.77;12.17;;;;;;;29.39;58.21;95090.94;5094624;28;20454;-85
2022/06/29 07:31:55;;;;;;;16.73;12.73;;;;;;;29.57;58.22;95090.78;5094350;28;20445;-81
2022/06/29 07:34:25;;;;;;;20.50;14.27;;;;;;;29.52;56.45;95085.28;5058663;28;20451;-86
2022/06/29 07:36:52;;;;;;;20.57;13.63;;;;;;;29.59;57.99;95079.72;5094211;28;20937;-82
2022/06/29 07:39:19;;;;;;;23.40;14.07;;;;;;;29.17;57.66;95092.69;5093775;28;20463;-82
2022/06/29 07:41:47;;;;;;;14.90;13.00;;;;;;;29.03;58.72;95080.53;5094345;28;20447;-83
2022/06/29 07:44:14;;;;;;;22.80;13.60;;;;;;;29.03;59.16;95084.06;5094430;28;20442;-82
2022/06/29 07:46:41;;;;;;;16.63;14.80;;;;;;;28.81;59.18;95081.13;5094196;28;20524;-84
2022/06/29 07:49:08;;;;;;;16.73;13.00;;;;;;;28.93;60.69;95081.16;5093963;28;20940;-84
2022/06/29 07:51:35;;;;;;;18.70;13.80;;;;;;;28.86;59.20;95078.56;5094141;28;20451;-84
2022/06/29 07:54:02;;;;;;;26.20;16.03;;;;;;;28.92;58.03;95074.94;5093936;28;20436;-84
2022/06/29 07:56:30;;;;;;;16.07;13.17;;;;;;;29.15;60.72;95073.19;5093918;28;20492;-84
2022/06/29 07:59:00;;;;;;;17.90;13.10;;;;;;;29.12;60.03;95074.50;5093792;28;20497;-83
2022/06/29 08:01:27;;;;;;;12.73;11.50;;;;;;;29.21;61.40;95074.94;5093689;28;20455;-84
2022/06/29 08:03:54;;;;;;;19.60;13.53;;;;;;;29.27;59.56;95079.38;5093981;28;20528;-84
2022/06/29 08:06:21;;;;;;;18.70;13.10;;;;;;;29.15;58.96;95076.72;5093683;28;20450;-83
2022/06/29 08:08:48;;;;;;;15.40;12.97;;;;;;;28.91;60.48;95067.03;5093972;28;20501;-83
2022/06/29 08:11:15;;;;;;;20.67;13.00;;;;;;;29.05;60.79;95062.19;5093957;28;20447;-85
2022/06/29 08:13:42;;;;;;;20.57;14.90;;;;;;;29.09;59.19;95063.34;5093830;28;20453;-84
2022/06/29 08:16:10;;;;;;;15.17;11.87;;;;;;;29.27;60.46;95061.28;5093636;28;20483;-84
2022/06/29 08:18:37;;;;;;;25.47;13.00;;;;;;;29.42;59.92;95065.31;5058017;28;20439;-85
2022/06/29 08:21:05;;;;;;;13.47;12.07;;;;;;;29.50;59.55;95064.97;5093753;28;20444;-83
2022/06/29 08:23:33;;;;;;;17.17;11.80;;;;;;;29.69;58.10;95074.47;5093387;28;20938;-85
2022/06/29 08:26:00;;;;;;;15.47;12.97;;;;;;;29.85;56.87;95073.69;5093704;28;20484;-84
2022/06/29 08:28:27;;;;;;;17.60;12.90;;;;;;;30.01;56.38;95063.09;5093039;28;20443;-84
2022/06/29 08:30:55;;;;;;;11.53;9.23;;;;;;;30.09;53.12;95074.38;5093536;28;20534;-82
2022/06/29 08:33:23;;;;;;;16.63;10.47;;;;;;;30.23;53.18;95069.44;5093421;28;20452;-84
2022/06/29 08:35:50;;;;;;;9.97;8.67;;;;;;;30.30;51.68;95067.34;5093105;28;20993;-84
2022/06/29 08:38:17;;;;;;;10.60;7.90;;;;;;;30.33;51.60;95071.47;5093278;28;20443;-83
2022/06/29 08:40:46;;;;;;;9.17;8.27;;;;;;;30.17;50.58;95063.13;5092848;28;20453;-83
2022/06/29 08:43:14;;;;;;;9.80;8.27;;;;;;;30.19;48.67;95060.16;5093308;28;20446;-83
2022/06/29 08:45:43;;;;;;;9.47;6.27;;;;;;;30.23;47.93;95063.19;5093289;28;20454;-83
2022/06/29 08:48:10;;;;;;;8.03;7.33;;;;;;;30.37;49.19;95064.50;5092735;28;20496;-83
2022/06/29 08:50:41;;;;;;;9.63;7.83;;;;;;;30.51;50.62;95060.34;5092842;28;20443;-84
2022/06/29 08:53:09;;;;;;;10.60;7.63;;;;;;;30.62;50.58;95055.91;5092677;28;20442;-84
2022/06/29 08:55:42;;;;;;;9.33;8.40;;;;;;;30.70;50.07;95061.72;5074102;28;20483;-84
2022/06/29 08:58:14;;;;;;;11.17;8.67;;;;;;;30.73;51.61;95058.53;5057485;28;20493;-85
2022/06/29 09:00:41;;;;;;;11.37;9.07;;;;;;;30.57;50.61;95055.81;5092911;28;20808;-84
2022/06/29 09:03:08;;;;;;;10.93;8.10;;;;;;;30.69;52.27;95057.38;5092764;28;20445;-84
2022/06/29 09:05:35;;;;;;;13.23;7.50;;;;;;;30.85;50.31;95060.28;5093048;28;20444;-84
2022/06/29 09:08:03;;;;;;;12.60;8.07;;;;;;;30.94;51.85;95054.19;5092586;28;20439;-84
2022/06/29 09:10:31;;;;;;;9.60;6.83;;;;;;;30.65;48.39;95050.84;5073882;28;20449;-85
2022/06/29 09:13:00;;;;;;;6.43;5.77;;;;;;;30.36;46.73;95043.88;5057040;28;20510;-82
2022/06/29 09:15:34;;;;;;;9.20;6.50;;;;;;;30.42;47.54;95051.03;5092724;28;20484;-84
2022/06/29 09:18:02;;;;;;;9.73;6.43;;;;;;;30.45;48.70;95042.41;5040632;28;20438;-85
2022/06/29 09:20:38;;;;;;;12.10;6.80;;;;;;;30.35;48.31;95050.34;5092633;28;20477;-84
2022/06/29 09:23:09;;;;;;;9.00;6.50;;;;;;;30.36;47.96;95052.00;5092568;28;20438;-85
2022/06/29 09:25:41;;;;;;;8.17;6.90;;;;;;;30.41;48.99;95049.38;5056869;28;20481;-85
2022/06/29 09:28:20;;;;;;;12.07;7.60;;;;;;;30.11;49.94;95044.34;5093017;28;20489;-83
2022/06/29 09:30:46;;;;;;;7.90;7.10;;;;;;;30.14;52.81;95046.56;5092723;28;20447;-86
2022/06/29 09:33:14;;;;;;;7.30;6.53;;;;;;;30.25;48.59;95052.94;5093155;28;20454;-84
2022/06/29 09:35:42;;;;;;;7.80;6.80;;;;;;;30.28;49.87;95049.72;5092954;28;21079;-85
2022/06/29 09:38:21;;;;;;;8.80;7.07;;;;;;;30.06;50.83;95047.78;5092912;28;20542;-83
2022/06/29 09:41:02;;;;;;;10.77;7.90;;;;;;;30.03;50.27;95048.28;5092530;28;20457;-84
2022/06/29 09:43:30;;;;;;;8.73;7.80;;;;;;;29.87;47.99;95049.09;5092185;28;20449;-85
2022/06/29 09:45:57;;;;;;;12.83;8.53;;;;;;;29.87;49.63;95043.69;5092462;28;20449;-83
2022/06/29 09:48:26;;;;;;;7.37;6.70;;;;;;;29.87;49.62;95043.69;5092359;28;20458;-85
2022/06/29 09:50:54;;;;;;;7.80;6.87;;;;;;;29.92;50.61;95039.16;5092456;28;20445;-84
2022/06/29 09:53:28;;;;;;;8.63;6.80;;;;;;;29.86;50.30;95040.16;5092196;28;20445;-84
2022/06/29 09:55:57;;;;;;;7.87;7.00;;;;;;;29.86;49.26;95042.03;5040097;28;20850;-85
2022/06/29 09:58:34;;;;;;;7.77;6.97;;;;;;;29.83;50.54;95031.72;5056636;28;20442;-84
2022/06/29 10:03:51;;;;;;;6.77;6.20;;;;;;;29.53;47.54;95030.13;5096090;28;20435;-84
2022/06/29 10:06:18;;;;;;;7.10;6.50;;;;;;;29.53;49.30;95026.63;5095881;28;20505;-85
2022/06/29 10:08:47;;;;;;;6.90;6.30;;;;;;;29.47;48.54;95022.97;5096180;28;20924;-85
2022/06/29 10:14:12;;;;;;;7.40;6.70;;;;;;;29.50;52.26;95030.63;5097575;28;20764;-85
2022/06/29 10:16:48;;;;;;;7.23;6.27;;;;;;;29.45;50.91;95027.81;5095667;28;20481;-80
2022/06/29 10:19:34;;;;;;;7.63;6.07;;;;;;;29.48;49.80;95023.81;5095663;28;20447;-85
2022/06/29 10:22:01;;;;;;;6.10;5.50;;;;;;;29.11;44.70;95028.78;5095739;28;20463;-84
2022/06/29 10:24:30;;;;;;;6.97;5.30;;;;;;;29.28;47.46;95024.25;5095580;28;20469;-83
2022/06/29 10:26:57;;;;;;;5.87;5.37;;;;;;;29.37;47.11;95021.97;5076874;28;20452;-84
2022/06/29 10:29:37;;;;;;;7.03;5.77;;;;;;;29.48;52.21;95023.81;5095537;28;20450;-84
2022/06/29 10:32:14;;;;;;;8.67;6.00;;;;;;;29.03;48.45;95011.09;5095524;28;20929;-84
2022/06/29 10:37:24;;;;;;;4.60;4.20;;;;;;;28.96;44.41;95016.66;5012867;28;20478;-84
2022/06/29 10:39:58;;;;;;;8.20;4.50;;;;;;;29.16;47.37;95015.38;5012854;28;20461;-84
2022/06/29 10:45:37;;;;;;;6.13;5.40;;;;;;;29.37;49.36;95016.56;5013087;28;20437;-85
2022/06/29 10:48:25;;;;;;;5.20;4.70;;;;;;;29.28;43.53;95011.56;4964092;28;20947;-85
2022/06/29 10:50:52;;;;;;;6.73;4.50;;;;;;;29.36;43.90;95012.22;5013004;28;20526;-85
2022/06/29 10:53:21;;;;;;;5.03;4.53;;;;;;;29.41;45.87;95007.72;5012979;28;20446;-85
2022/06/29 10:55:55;;;;;;;4.77;4.40;;;;;;;29.37;43.80;95009.25;4979875;28;20892;-84
2022/06/29 10:58:23;;;;;;;4.70;3.93;;;;;;;29.37;44.01;95001.16;5012887;28;20446;-83
2022/06/29 11:00:54;;;;;;;4.97;4.47;;;;;;;29.23;43.17;95008.75;5012669;28;20447;-83
2022/06/29 11:03:25;;;;;;;6.50;4.70;;;;;;;29.21;44.26;95001.97;5012843;28;20833;-84
2022/06/29 11:20:22;;;;;;;5.77;4.57;;;;;;;29.77;44.83;94984.78;5094721;28;20799;-84
2022/06/29 11:22:50;;;;;;;4.73;4.20;;;;;;;29.75;42.76;94969.88;5094514;28;20438;-85
2022/06/29 11:25:17;;;;;;;5.00;4.70;;;;;;;29.89;43.77;94977.41;5094331;28;20816;-85
2022/06/29 11:27:45;;;;;;;12.90;4.83;;;;;;;29.95;42.36;94962.06;5094317;28;20446;-84
2022/06/29 11:30:15;;;;;;;4.57;4.17;;;;;;;29.78;44.99;94972.09;5094615;28;20442;-83
2022/06/29 11:32:44;;;;;;;5.60;4.80;;;;;;;29.79;44.71;94965.63;5094310;28;20538;-83
2022/06/29 11:35:13;;;;;;;7.43;4.73;;;;;;;29.78;45.37;94961.25;5094154;28;20492;-83
2022/06/29 11:37:47;;;;;;;5.77;5.30;;;;;;;29.63;43.18;94961.03;5094118;28;20513;-83
2022/06/29 11:40:14;;;;;;;4.97;4.53;;;;;;;29.73;45.63;94958.47;5094109;28;20453;-81
2022/06/29 11:45:29;;;;;;;6.93;4.90;;;;;;;30.03;43.76;94955.44;5031403;28;20440;-83
2022/06/29 11:47:56;;;;;;;5.23;4.73;;;;;;;30.18;43.66;94952.94;5031718;28;20844;-84
2022/06/29 11:50:23;;;;;;;12.40;5.30;;;;;;;30.34;44.21;94945.81;5014581;28;20465;-82
2022/06/29 11:52:51;;;;;;;8.47;5.40;;;;;;;30.44;44.75;94951.38;5031393;28;20446;-83
2022/06/29 11:55:39;;;;;;;6.63;4.67;;;;;;;30.54;43.02;94943.38;5031438;28;20457;-82
2022/06/29 11:58:06;;;;;;;5.30;4.80;;;;;;;30.63;43.20;94941.06;5031401;28;20471;-84
2022/06/29 12:00:38;;;;;;;6.40;4.30;;;;;;;30.68;43.32;94941.97;5031340;28;20809;-84
2022/06/29 12:03:04;;;;;;;5.57;5.10;;;;;;;30.72;45.56;94943.09;5031412;28;20446;-83
2022/06/29 12:05:31;;;;;;;4.60;4.20;;;;;;;30.74;43.37;94940.94;5031277;28;20446;-83
2022/06/29 12:07:58;;;;;;;5.73;4.13;;;;;;;30.44;44.44;94935.97;4998226;28;20542;-83
2022/06/29 12:10:25;;;;;;;5.07;4.67;;;;;;;30.41;46.58;94938.34;5031103;28;20442;-83
2022/06/29 12:12:52;;;;;;;8.20;4.93;;;;;;;30.21;45.61;94936.19;4997989;28;20466;-83
2022/06/29 12:15:19;;;;;;;5.73;4.90;;;;;;;30.14;41.12;94930.16;5031152;28;20451;-83
2022/06/29 12:17:47;;;;;;;4.80;4.50;;;;;;;30.11;43.00;94926.06;5031030;28;20496;-82
2022/06/29 12:20:14;;;;;;;4.27;3.97;;;;;;;30.12;41.62;94927.69;5031027;28;20444;-80
2022/06/29 12:22:41;;;;;;;5.00;4.60;;;;;;;30.25;41.02;94928.38;5061748;28;20450;-83
2022/06/29 12:25:08;;;;;;;5.90;4.67;;;;;;;30.07;44.44;94929.50;5093199;28;20487;-82
2022/06/29 12:27:36;;;;;;;5.03;4.63;;;;;;;30.13;42.40;94933.94;5093025;28;20455;-83
2022/06/29 12:30:05;;;;;;;5.20;4.80;;;;;;;30.14;42.61;94924.75;5092975;28;20442;-83
2022/06/29 12:32:32;;;;;;;5.40;4.90;;;;;;;30.22;42.62;94921.59;5093417;28;20859;-83